createdAt,value
2023-02-25T00:00:33.549Z,30.53
2023-02-25T00:03:01.189Z,29.33
2023-02-25T00:05:31.329Z,27.57
2023-02-25T00:07:59.856Z,28.13
2023-02-25T00:10:27.368Z,26.40
2023-02-25T00:12:54.807Z,27.03
2023-02-25T00:15:22.662Z,25.83
2023-02-25T00:17:49.973Z,27.23
2023-02-25T00:20:18.413Z,26.83
2023-02-25T00:22:45.946Z,25.70
2023-02-25T00:25:13.222Z,25.27
2023-02-25T00:27:40.455Z,26.40
2023-02-25T00:30:08.562Z,26.97
2023-02-25T00:32:35.957Z,27.10
2023-02-25T00:39:16.256Z,26.57
2023-02-25T00:41:45.581Z,24.47
2023-02-25T00:44:13.049Z,25.10
2023-02-25T00:46:40.224Z,24.37
2023-02-25T00:49:27.191Z,23.90
2023-02-25T00:51:59.984Z,23.87
2023-02-25T00:54:28.350Z,25.57
2023-02-25T00:56:58.184Z,23.70
2023-02-25T00:59:25.593Z,24.10
2023-02-25T01:01:53.298Z,25.80
2023-02-25T01:04:20.562Z,25.10
2023-02-25T01:10:56.209Z,24.67
2023-02-25T01:13:23.486Z,22.77
2023-02-25T01:15:50.662Z,23.07
2023-02-25T01:18:17.965Z,22.13
2023-02-25T01:20:45.164Z,22.43
2023-02-25T01:23:12.546Z,23.50
2023-02-25T01:25:41.034Z,23.90
2023-02-25T01:28:08.520Z,23.10
2023-02-25T01:30:38.708Z,22.10
2023-02-25T01:33:05.883Z,22.63
2023-02-25T01:35:36.074Z,23.43
2023-02-25T01:38:03.441Z,22.93
2023-02-25T01:40:31.130Z,23.03
2023-02-25T01:42:58.356Z,23.23
2023-02-25T01:45:31.020Z,22.73
2023-02-25T01:48:17.316Z,24.10
2023-02-25T01:50:54.005Z,22.77
2023-02-25T01:53:29.483Z,23.37
2023-02-25T01:55:59.916Z,22.83
2023-02-25T01:58:27.988Z,23.00
2023-02-25T02:00:56.160Z,22.77
2023-02-25T02:03:34.414Z,22.67
2023-02-25T02:06:26.407Z,22.23
2023-02-25T02:08:54.974Z,22.17
2023-02-25T02:11:22.133Z,21.03
2023-02-25T02:13:55.666Z,21.13
2023-02-25T02:17:20.352Z,22.90
2023-02-25T02:20:05.106Z,22.83
2023-02-25T02:22:48.312Z,21.80
2023-02-25T02:25:51.877Z,22.80
2023-02-25T02:28:31.159Z,21.93
2023-02-25T02:35:23.718Z,22.27
2023-02-25T02:38:33.963Z,22.80
2023-02-25T02:41:22.848Z,22.17
2023-02-25T02:44:26.995Z,23.00
2023-02-25T02:47:10.476Z,23.77
2023-02-25T02:49:57.433Z,22.87
2023-02-25T02:52:31.871Z,22.00
2023-02-25T02:59:39.020Z,21.53
2023-02-25T03:02:20.710Z,21.90
2023-02-25T03:04:53.829Z,22.40
2023-02-25T03:07:23.518Z,20.60
2023-02-25T03:09:57.196Z,20.57
2023-02-25T03:12:25.001Z,23.07
2023-02-25T03:14:52.243Z,21.37
2023-02-25T03:17:28.673Z,21.47
2023-02-25T03:20:27.222Z,21.63
2023-02-25T03:22:58.754Z,20.50
2023-02-25T03:25:41.019Z,22.03
2023-02-25T03:28:19.815Z,21.73
2023-02-25T03:31:10.248Z,22.13
2023-02-25T03:33:47.627Z,21.47
2023-02-25T03:36:40.273Z,23.13
2023-02-25T03:39:17.092Z,20.97
2023-02-25T03:41:52.329Z,20.97
2023-02-25T03:44:51.618Z,21.43
2023-02-25T03:47:22.347Z,20.90
2023-02-25T03:50:08.567Z,21.43
2023-02-25T03:52:36.567Z,22.00
2023-02-25T03:55:06.136Z,22.47
2023-02-25T03:57:41.275Z,21.33
2023-02-25T04:00:18.723Z,21.13
2023-02-25T04:02:47.732Z,20.97
2023-02-25T04:05:17.773Z,21.63
2023-02-25T04:07:45.471Z,22.80
2023-02-25T04:10:16.312Z,21.60
2023-02-25T04:12:43.601Z,23.13
2023-02-25T04:15:11.570Z,22.27
2023-02-25T04:17:39.142Z,21.47
2023-02-25T04:20:06.927Z,20.83
2023-02-25T04:22:34.218Z,20.17
2023-02-25T04:25:01.669Z,21.80
2023-02-25T04:27:28.777Z,23.20
2023-02-25T04:29:55.971Z,23.77
2023-02-25T04:32:23.387Z,23.53
2023-02-25T04:34:51.210Z,23.73
2023-02-25T04:37:18.457Z,21.90
2023-02-25T04:39:45.596Z,21.33
2023-02-25T04:42:12.766Z,23.17
2023-02-25T04:44:39.966Z,22.97
2023-02-25T04:47:07.103Z,22.97
2023-02-25T04:49:34.686Z,23.43
2023-02-25T04:52:01.868Z,23.23
2023-02-25T04:58:23.506Z,22.73
2023-02-25T05:00:50.664Z,22.67
2023-02-25T05:03:17.832Z,24.23
2023-02-25T05:05:45.037Z,24.07
2023-02-25T05:08:12.236Z,25.93
2023-02-25T05:10:39.401Z,24.10
2023-02-25T05:13:07.172Z,21.67
2023-02-25T05:15:34.311Z,22.93
2023-02-25T05:18:02.548Z,20.60
2023-02-25T05:20:30.058Z,23.10
2023-02-25T05:27:05.262Z,23.77
2023-02-25T05:29:32.409Z,24.30
2023-02-25T05:36:11.307Z,25.60
2023-02-25T05:38:38.655Z,25.00
2023-02-25T05:41:07.180Z,23.40
2023-02-25T05:43:35.745Z,23.50
2023-02-25T05:46:03.250Z,21.83
2023-02-25T05:49:16.095Z,22.97
2023-02-25T05:51:43.480Z,25.27
2023-02-25T05:58:11.364Z,19.50
2023-02-25T06:00:39.594Z,20.70
2023-02-25T06:03:07.002Z,23.63
2023-02-25T06:05:34.274Z,22.73
2023-02-25T06:08:01.703Z,17.63
2023-02-25T06:10:28.968Z,14.27
2023-02-25T06:12:56.165Z,14.27
2023-02-25T06:15:23.325Z,11.67
2023-02-25T06:17:50.557Z,12.83
2023-02-25T06:24:24.719Z,12.33
2023-02-25T06:26:52.083Z,12.00
2023-02-25T06:29:19.556Z,11.73
2023-02-25T06:31:46.934Z,11.03
2023-02-25T06:34:14.281Z,11.57
2023-02-25T06:36:41.481Z,12.07
2023-02-25T06:43:18.666Z,11.93
2023-02-25T06:45:45.892Z,11.83
2023-02-25T06:48:13.333Z,10.67
2023-02-25T06:50:41.639Z,10.53
2023-02-25T06:57:08.216Z,9.87
2023-02-25T06:59:35.381Z,9.60
2023-02-25T07:02:03.161Z,9.30
2023-02-25T07:04:30.588Z,24.43
2023-02-25T07:06:57.752Z,15.03
2023-02-25T07:09:25.499Z,10.53
2023-02-25T07:11:52.655Z,9.10
2023-02-25T07:14:19.849Z,9.00
2023-02-25T07:16:47.051Z,8.17
2023-02-25T07:19:16.265Z,8.90
2023-02-25T07:21:44.604Z,8.50
2023-02-25T07:24:13.476Z,8.53
2023-02-25T07:30:43.176Z,9.33
2023-02-25T07:33:10.416Z,9.67
2023-02-25T07:35:37.920Z,8.40
2023-02-25T07:38:05.072Z,9.47
2023-02-25T07:40:32.236Z,8.80
2023-02-25T07:42:59.399Z,8.70
2023-02-25T07:45:26.640Z,8.93
2023-02-25T07:47:54.295Z,9.73
2023-02-25T07:50:21.926Z,8.63
2023-02-25T07:52:49.553Z,8.63
2023-02-25T07:59:23.023Z,9.13
2023-02-25T08:01:50.254Z,8.70
2023-02-25T08:04:17.507Z,7.97
2023-02-25T08:07:22.196Z,9.27
2023-02-25T08:09:49.337Z,8.60
2023-02-25T08:12:16.569Z,8.73
2023-02-25T08:14:43.879Z,8.70
2023-02-25T08:17:11.026Z,8.03
2023-02-25T08:19:38.146Z,8.03
2023-02-25T08:26:15.243Z,8.20
2023-02-25T08:36:55.013Z,8.23
2023-02-25T08:39:22.271Z,7.13
2023-02-25T08:49:56.211Z,6.70
2023-02-25T08:52:23.394Z,6.20
2023-02-25T08:54:50.534Z,6.50
2023-02-25T08:57:17.931Z,6.57
2023-02-25T08:59:45.116Z,6.33
2023-02-25T09:02:12.777Z,6.33
2023-02-25T09:04:42.007Z,6.30
2023-02-25T09:07:09.749Z,5.67
2023-02-25T09:13:43.289Z,5.70
2023-02-25T09:16:11.609Z,6.77
2023-02-25T09:18:38.855Z,5.33
2023-02-25T09:25:12.053Z,4.40
2023-02-25T09:27:39.525Z,4.63
2023-02-25T09:30:09.102Z,4.77
2023-02-25T09:36:42.777Z,3.90
2023-02-25T09:39:10.039Z,3.80
2023-02-25T09:42:20.635Z,3.50
2023-02-25T09:44:51.777Z,3.83
2023-02-25T09:47:58.548Z,3.47
2023-02-25T09:50:45.652Z,3.60
2023-02-25T09:53:40.066Z,3.07
2023-02-25T09:56:09.121Z,3.00
2023-02-25T09:58:41.679Z,2.73
2023-02-25T10:01:51.645Z,2.93
2023-02-25T10:05:02.901Z,3.40
2023-02-25T10:07:51.882Z,3.10
2023-02-25T10:10:36.733Z,2.60
2023-02-25T10:14:00.267Z,3.00
2023-02-25T10:16:59.392Z,3.20
2023-02-25T10:20:26.224Z,2.63
2023-02-25T10:23:28.065Z,2.60
2023-02-25T10:30:27.945Z,3.20
2023-02-25T10:37:06.051Z,2.67
2023-02-25T10:39:34.270Z,2.80
2023-02-25T10:42:01.476Z,2.70
2023-02-25T10:44:28.577Z,2.50
2023-02-25T10:47:23.807Z,2.60
2023-02-25T10:50:17.447Z,2.60
2023-02-25T10:56:51.564Z,3.37
2023-02-25T10:59:31.240Z,2.50
2023-02-25T11:02:01.363Z,1.97
2023-02-25T11:08:47.653Z,1.90
2023-02-25T11:11:26.117Z,2.00
2023-02-25T11:14:15.196Z,1.50
2023-02-25T11:16:45.704Z,1.80
2023-02-25T11:19:28.900Z,1.63
2023-02-25T11:21:59.864Z,1.90
2023-02-25T11:24:34.597Z,1.60
2023-02-25T11:27:05.182Z,1.40
2023-02-25T11:33:40.618Z,1.60
2023-02-25T11:36:09.894Z,1.60
2023-02-25T11:38:43.174Z,1.60
2023-02-25T11:41:24.044Z,1.67
2023-02-25T11:43:51.694Z,1.60
2023-02-25T11:46:26.552Z,2.00
2023-02-25T11:53:44.879Z,1.33
2023-02-25T12:00:42.091Z,1.70
2023-02-25T12:03:18.389Z,1.90
2023-02-25T12:10:36.598Z,1.80
2023-02-25T12:13:33.286Z,1.80
2023-02-25T12:16:48.018Z,1.80
2023-02-25T12:19:45.650Z,2.00
2023-02-25T12:22:51.698Z,2.13
2023-02-25T12:25:24.565Z,1.90
2023-02-25T12:28:03.431Z,2.00
2023-02-25T12:31:09.269Z,1.80
2023-02-25T12:38:17.496Z,2.40
2023-02-25T12:40:50.461Z,2.03
2023-02-25T12:43:32.649Z,2.00
2023-02-25T12:46:08.976Z,2.10
2023-02-25T12:49:15.952Z,2.23
2023-02-25T12:52:07.213Z,2.30
2023-02-25T12:54:59.313Z,2.50
2023-02-25T12:57:46.146Z,2.70
2023-02-25T13:04:42.632Z,2.47
2023-02-25T13:07:21.498Z,2.30
2023-02-25T13:09:51.611Z,2.77
2023-02-25T13:13:10.925Z,2.70
2023-02-25T13:16:30.997Z,2.50
2023-02-25T13:19:32.414Z,2.50
2023-02-25T13:22:14.184Z,31.03
2023-02-25T13:25:29.233Z,2.80
2023-02-25T13:28:44.949Z,3.00
2023-02-25T13:35:39.122Z,2.30
2023-02-25T13:38:53.782Z,2.67
2023-02-25T13:41:48.537Z,2.77
2023-02-25T13:49:03.510Z,2.60
2023-02-25T13:52:19.285Z,2.87
2023-02-25T13:55:24.194Z,3.00
2023-02-25T13:58:01.994Z,2.47
2023-02-25T14:00:54.032Z,2.50
2023-02-25T14:03:59.758Z,2.80
2023-02-25T14:07:10.414Z,2.93
2023-02-25T14:10:00.581Z,2.57
2023-02-25T14:12:39.859Z,2.40
2023-02-25T14:15:54.777Z,2.30
2023-02-25T14:19:05.070Z,2.40
2023-02-25T14:30:19.468Z,2.50
2023-02-25T14:33:03.808Z,2.70
2023-02-25T14:35:58.866Z,2.70
2023-02-25T14:39:28.076Z,2.67
2023-02-25T14:42:41.989Z,2.53
2023-02-25T14:45:09.102Z,2.73
2023-02-25T14:47:40.752Z,2.57
2023-02-25T14:58:49.950Z,2.87
2023-02-25T15:02:16.154Z,3.10
2023-02-25T15:05:01.808Z,3.60
2023-02-25T15:08:01.328Z,3.53
2023-02-25T15:10:47.490Z,2.90
2023-02-25T15:13:39.308Z,3.03
2023-02-25T15:17:02.879Z,3.00
2023-02-25T15:19:53.674Z,3.07
2023-02-25T15:23:10.718Z,2.70
2023-02-25T15:25:38.602Z,2.20
2023-02-25T15:28:30.618Z,2.10
2023-02-25T15:35:00.717Z,6.67
2023-02-25T15:37:55.764Z,4.07
2023-02-25T15:40:23.173Z,2.40
2023-02-25T15:43:12.709Z,21.10
2023-02-25T15:45:49.137Z,2.57
2023-02-25T15:48:24.047Z,2.37
2023-02-25T15:50:53.020Z,2.57
2023-02-25T15:53:23.346Z,2.23
2023-02-25T15:55:52.906Z,2.53
2023-02-25T15:58:26.278Z,2.50
2023-02-25T16:01:07.853Z,2.03
2023-02-25T16:03:35.184Z,2.83
2023-02-25T16:10:35.256Z,1.80
2023-02-25T16:13:03.680Z,1.97
2023-02-25T16:15:47.146Z,2.67
2023-02-25T16:18:37.550Z,4.77
2023-02-25T16:25:05.678Z,4.73
2023-02-25T16:28:17.618Z,6.17
2023-02-25T16:31:17.421Z,3.40
2023-02-25T16:34:23.089Z,3.23
2023-02-25T16:37:07.731Z,3.67
2023-02-25T16:39:37.461Z,2.83
2023-02-25T16:42:12.635Z,3.83
2023-02-25T16:48:45.909Z,4.63
2023-02-25T16:51:31.739Z,4.77
2023-02-25T16:54:20.849Z,6.20
2023-02-25T16:56:54.081Z,3.43
2023-02-25T16:59:23.474Z,5.80
2023-02-25T17:02:22.949Z,3.63
2023-02-25T17:08:57.252Z,3.30
2023-02-25T17:11:26.112Z,3.03
2023-02-25T17:13:58.312Z,3.43
2023-02-25T17:16:38.347Z,3.90
2023-02-25T17:19:10.289Z,1.70
2023-02-25T17:25:49.045Z,1.50
2023-02-25T17:28:32.121Z,1.40
2023-02-25T17:31:19.534Z,2.00
2023-02-25T17:34:03.254Z,1.90
2023-02-25T17:40:30.838Z,2.20
2023-02-25T17:47:50.040Z,1.10
2023-02-25T17:50:31.984Z,1.10
2023-02-25T17:53:00.015Z,1.20
2023-02-25T18:00:10.122Z,4.57
2023-02-25T18:02:41.759Z,4.53
2023-02-25T18:05:14.983Z,4.30
2023-02-25T18:07:45.263Z,4.37
2023-02-25T18:14:42.416Z,5.03
2023-02-25T18:25:44.672Z,5.60
2023-02-25T18:28:22.828Z,2.50
2023-02-25T18:30:50.929Z,3.63
2023-02-25T18:33:19.273Z,3.20
2023-02-25T18:35:48.587Z,2.53
2023-02-25T18:38:26.492Z,2.30
2023-02-25T18:40:55.458Z,1.67
2023-02-25T18:43:45.023Z,1.80
2023-02-25T18:46:12.410Z,1.53
2023-02-25T18:48:39.860Z,1.80
2023-02-25T18:51:13.656Z,1.67
2023-02-25T18:53:41.686Z,1.73
2023-02-25T18:56:16.640Z,2.97
2023-02-25T18:58:44.721Z,2.70
2023-02-25T19:01:34.352Z,2.00
2023-02-25T19:04:08.168Z,2.40
2023-02-25T19:06:35.685Z,2.10
2023-02-25T19:09:03.761Z,2.00
2023-02-25T19:11:35.664Z,2.50
2023-02-25T19:14:05.403Z,2.27
2023-02-25T19:16:32.665Z,2.97
2023-02-25T19:19:00.494Z,5.47
2023-02-25T19:21:28.215Z,4.30
2023-02-25T19:23:55.868Z,4.23
2023-02-25T19:26:23.641Z,3.83
2023-02-25T19:28:50.996Z,3.17
2023-02-25T19:31:18.243Z,2.73
2023-02-25T19:33:45.686Z,3.20
2023-02-25T19:36:13.043Z,3.07
2023-02-25T19:38:40.432Z,2.97
2023-02-25T19:41:07.862Z,3.27
2023-02-25T19:43:36.406Z,3.30
2023-02-25T19:46:08.727Z,3.47
2023-02-25T19:48:36.277Z,3.43
2023-02-25T19:51:10.727Z,3.80
2023-02-25T19:53:38.638Z,4.60
2023-02-25T19:56:06.906Z,4.70
2023-02-25T19:58:34.353Z,3.60
2023-02-25T20:01:07.989Z,4.23
2023-02-25T20:03:38.752Z,3.70
2023-02-25T20:10:26.162Z,3.33
2023-02-25T20:12:54.198Z,4.13
2023-02-25T20:15:23.118Z,3.77
2023-02-25T20:17:50.762Z,3.97
2023-02-25T20:24:37.075Z,3.60
2023-02-25T20:27:04.713Z,3.43
2023-02-25T20:29:32.676Z,3.03
2023-02-25T20:32:00.764Z,3.27
2023-02-25T20:34:28.685Z,3.10
2023-02-25T20:41:15.877Z,3.30
2023-02-25T20:43:43.211Z,2.73
2023-02-25T20:46:28.743Z,3.33
2023-02-25T20:48:56.514Z,3.40
2023-02-25T20:51:24.307Z,2.90
2023-02-25T20:53:52.010Z,2.70
2023-02-25T20:56:25.583Z,2.53
2023-02-25T20:58:53.791Z,2.47
2023-02-25T21:01:22.324Z,2.63
2023-02-25T21:03:49.770Z,3.07
2023-02-25T21:06:18.819Z,2.00
2023-02-25T21:08:46.155Z,2.20
2023-02-25T21:11:13.530Z,2.00
2023-02-25T21:13:40.909Z,2.20
2023-02-25T21:16:08.894Z,2.10
2023-02-25T21:18:36.269Z,2.17
2023-02-25T21:21:08.065Z,2.00
2023-02-25T21:23:38.341Z,1.80
2023-02-25T21:26:07.992Z,1.67
2023-02-25T21:28:36.507Z,1.70
2023-02-25T21:31:13.893Z,1.90
2023-02-25T21:33:42.223Z,1.50
2023-02-25T21:36:11.308Z,1.67
2023-02-25T21:38:39.280Z,1.70
2023-02-25T21:41:11.630Z,1.57
2023-02-25T21:43:40.450Z,1.50
2023-02-25T21:46:12.867Z,1.40
2023-02-25T21:48:44.758Z,1.40
2023-02-25T21:51:22.995Z,1.60
2023-02-25T21:53:58.835Z,1.30
2023-02-25T21:56:28.494Z,1.30
2023-02-25T21:58:59.552Z,1.37
2023-02-25T22:01:32.070Z,1.37
2023-02-25T22:03:59.563Z,1.47
2023-02-25T22:06:28.145Z,1.50
2023-02-25T22:08:56.793Z,1.60
2023-02-25T22:11:28.954Z,1.83
2023-02-25T22:13:57.822Z,1.50
2023-02-25T22:16:25.587Z,1.27
2023-02-25T22:19:05.850Z,1.63
2023-02-25T22:21:34.716Z,1.17
2023-02-25T22:24:04.843Z,1.00
2023-02-25T22:30:38.764Z,1.33
2023-02-25T22:33:05.967Z,1.13
2023-02-25T22:35:33.472Z,1.10
2023-02-25T22:38:00.589Z,1.10
2023-02-25T22:45:32.786Z,1.20
2023-02-25T22:47:59.962Z,1.10
2023-02-25T22:54:26.847Z,1.23
2023-02-25T22:56:54.239Z,1.10
2023-02-25T23:07:18.293Z,1.20
2023-02-25T23:09:45.420Z,1.80
2023-02-25T23:12:12.577Z,1.03
2023-02-25T23:14:39.790Z,1.20
2023-02-25T23:17:06.930Z,1.10
2023-02-25T23:19:34.496Z,1.10
2023-02-25T23:22:02.109Z,1.00
2023-02-25T23:28:36.580Z,1.00
2023-02-25T23:31:05.120Z,0.87
2023-02-25T23:33:33.509Z,1.00
2023-02-25T23:36:04.776Z,1.00
2023-02-25T23:38:31.996Z,0.90
2023-02-25T23:41:00.387Z,1.00
2023-02-25T23:43:27.920Z,1.00
2023-02-25T23:45:55.069Z,1.10
2023-02-25T23:48:22.544Z,1.20
2023-02-25T23:50:49.878Z,1.07
2023-02-25T23:53:17.147Z,1.10
2023-02-25T23:55:44.372Z,1.03
2023-02-25T23:58:11.505Z,0.90
